createdAt,value
2023-03-23T15:59:27.309Z,13.51
2023-03-23T16:01:54.231Z,13.55
2023-03-23T16:04:21.409Z,13.53
2023-03-23T16:06:48.955Z,13.58
2023-03-23T16:09:19.447Z,13.52
2023-03-23T16:11:46.559Z,13.43
2023-03-23T16:14:13.236Z,13.31
2023-03-23T16:16:39.961Z,13.36
2023-03-23T16:19:07.247Z,13.44
2023-03-23T16:21:34.144Z,13.26
2023-03-23T16:24:01.450Z,13.22
2023-03-23T16:26:28.276Z,13.28
2023-03-23T16:29:02.749Z,13.36
2023-03-23T16:31:36.843Z,13.30
2023-03-23T16:34:03.497Z,13.37
2023-03-23T16:36:30.096Z,13.35
2023-03-23T16:38:56.690Z,13.18
2023-03-23T16:41:23.388Z,13.24
2023-03-23T16:43:50.109Z,13.24
2023-03-23T16:46:16.759Z,13.16
2023-03-23T16:48:43.728Z,13.05
2023-03-23T16:51:10.477Z,13.13
2023-03-23T16:53:37.738Z,13.08
2023-03-23T16:56:05.195Z,13.08
2023-03-23T16:58:31.969Z,12.99
2023-03-23T17:00:58.663Z,13.01
2023-03-23T17:03:25.652Z,12.95
2023-03-23T17:05:53.059Z,12.97
2023-03-23T17:08:20.989Z,12.97
2023-03-23T17:10:48.259Z,13.00
2023-03-23T17:13:14.930Z,12.96
2023-03-23T17:15:45.290Z,12.85
2023-03-23T17:18:14.232Z,12.87
2023-03-23T17:20:42.707Z,12.85
2023-03-23T17:23:09.611Z,12.89
2023-03-23T17:25:36.192Z,12.83
2023-03-23T17:28:05.687Z,12.76
2023-03-23T17:30:33.159Z,12.63
2023-03-23T17:33:00.151Z,12.69
2023-03-23T17:35:26.922Z,12.60
2023-03-23T17:37:53.699Z,12.53
2023-03-23T17:40:20.531Z,12.55
2023-03-23T17:42:47.186Z,12.55
2023-03-23T17:45:13.864Z,12.44
2023-03-23T17:47:40.526Z,12.40
2023-03-23T17:50:11.673Z,12.37
2023-03-23T17:52:40.523Z,12.32
2023-03-23T17:55:08.147Z,12.28
2023-03-23T17:57:35.413Z,12.28
2023-03-23T18:00:03.546Z,12.24
2023-03-23T18:02:30.450Z,12.17
2023-03-23T18:04:59.711Z,12.12
2023-03-23T18:07:26.424Z,12.12
2023-03-23T18:09:53.130Z,12.16
2023-03-23T18:12:19.811Z,12.13
2023-03-23T18:14:46.497Z,12.10
2023-03-23T18:17:13.071Z,12.06
2023-03-23T18:19:39.830Z,12.07
2023-03-23T18:22:06.533Z,12.06
2023-03-23T18:24:33.208Z,12.04
2023-03-23T18:27:00.266Z,12.01
2023-03-23T18:29:27.069Z,11.98
2023-03-23T18:31:53.878Z,11.95
2023-03-23T18:34:20.725Z,11.94
2023-03-23T18:36:47.348Z,11.92
2023-03-23T18:39:14.172Z,11.86
2023-03-23T18:41:40.957Z,11.85
2023-03-23T18:44:07.602Z,11.80
2023-03-23T18:46:34.300Z,11.79
2023-03-23T18:49:00.969Z,11.82
2023-03-23T18:51:27.684Z,11.82
2023-03-23T18:53:54.533Z,11.75
2023-03-23T18:56:21.159Z,11.71
2023-03-23T18:58:47.803Z,11.70
2023-03-23T19:01:17.056Z,11.70
2023-03-23T19:03:46.045Z,11.66
2023-03-23T19:06:19.410Z,11.64
2023-03-23T19:08:47.835Z,11.63
2023-03-23T19:11:14.989Z,11.62
2023-03-23T19:13:53.933Z,11.54
2023-03-23T19:16:28.247Z,11.60
2023-03-23T19:18:54.938Z,11.53
2023-03-23T19:21:25.483Z,11.53
2023-03-23T19:23:56.127Z,11.45
2023-03-23T19:26:29.234Z,11.51
2023-03-23T19:31:26.053Z,11.48
2023-03-23T19:33:53.312Z,11.44
2023-03-23T19:36:21.366Z,11.49
2023-03-23T19:38:48.442Z,11.46
2023-03-23T19:41:18.300Z,11.43
2023-03-23T19:43:46.053Z,11.47
2023-03-23T19:46:14.074Z,11.45
2023-03-23T19:48:41.013Z,11.48
2023-03-23T19:51:09.272Z,11.44
2023-03-23T19:53:36.323Z,11.43
2023-03-23T19:56:04.852Z,11.39
2023-03-23T19:58:32.508Z,11.38
2023-03-23T20:01:01.065Z,11.38
2023-03-23T20:03:28.453Z,11.37
2023-03-23T20:06:02.939Z,11.31
2023-03-23T20:08:31.326Z,11.31
2023-03-23T20:11:06.588Z,11.28
2023-03-23T20:13:33.259Z,11.28
2023-03-23T20:16:00.885Z,11.28
2023-03-23T20:18:29.789Z,11.30
2023-03-23T20:21:10.148Z,11.26
2023-03-23T20:23:38.460Z,11.31
2023-03-23T20:26:11.750Z,11.26
2023-03-23T20:28:39.151Z,11.26
2023-03-23T20:31:19.222Z,11.25
2023-03-23T20:34:00.885Z,11.27
2023-03-23T20:36:40.552Z,11.32
2023-03-23T20:39:10.857Z,11.37
2023-03-23T20:41:38.924Z,11.33
2023-03-23T20:44:07.586Z,11.29
2023-03-23T20:46:35.345Z,11.30
2023-03-23T20:49:02.764Z,11.23
2023-03-23T20:51:29.725Z,11.19
2023-03-23T20:53:56.315Z,11.22
2023-03-23T20:56:24.479Z,11.19
2023-03-23T20:58:51.943Z,11.13
2023-03-23T21:01:18.661Z,11.15
2023-03-23T21:03:45.593Z,11.18
2023-03-23T21:06:12.258Z,11.18
2023-03-23T21:08:40.795Z,11.08
2023-03-23T21:11:09.924Z,11.28
2023-03-23T21:13:36.965Z,11.19
2023-03-23T21:16:05.196Z,11.16
2023-03-23T21:18:32.283Z,11.14
2023-03-23T21:21:00.395Z,11.12
2023-03-23T21:23:30.755Z,11.15
2023-03-23T21:26:02.512Z,11.10
2023-03-23T21:28:29.809Z,11.15
2023-03-23T21:31:01.030Z,11.17
2023-03-23T21:33:28.323Z,11.10
2023-03-23T21:35:55.104Z,11.08
2023-03-23T21:38:26.358Z,11.05
2023-03-23T21:40:54.472Z,11.10
2023-03-23T21:43:27.720Z,11.18
2023-03-23T21:46:02.930Z,11.09
2023-03-23T21:48:30.191Z,11.13
2023-03-23T21:50:57.002Z,11.12
2023-03-23T21:53:25.500Z,11.18
2023-03-23T21:55:52.744Z,11.20
2023-03-23T21:58:21.763Z,11.15
2023-03-23T22:00:50.312Z,11.14
2023-03-23T22:03:19.229Z,11.16
2023-03-23T22:05:46.584Z,11.16
2023-03-23T22:08:13.873Z,11.17
2023-03-23T22:11:01.248Z,11.31
2023-03-23T22:13:33.430Z,11.31
2023-03-23T22:16:21.488Z,11.31
2023-03-23T22:18:49.314Z,11.32
2023-03-23T22:21:17.098Z,11.37
2023-03-23T22:23:45.554Z,11.40
2023-03-23T22:26:12.745Z,11.41
2023-03-23T22:28:39.878Z,11.41
2023-03-23T22:31:12.002Z,11.41
2023-03-23T22:33:39.177Z,11.45
2023-03-23T22:36:07.193Z,11.48
2023-03-23T22:38:35.747Z,11.49
2023-03-23T22:41:07.000Z,11.55
2023-03-23T22:43:35.461Z,11.54
2023-03-23T22:46:02.942Z,11.55
2023-03-23T22:48:30.123Z,11.50
2023-03-23T22:50:58.513Z,11.52
2023-03-23T22:53:25.602Z,11.55
2023-03-23T22:55:55.021Z,11.59
2023-03-23T22:58:21.605Z,11.53
2023-03-23T23:00:50.378Z,11.46
2023-03-23T23:03:18.109Z,11.51
2023-03-23T23:05:48.587Z,11.49
2023-03-23T23:08:17.889Z,11.46
2023-03-23T23:10:48.061Z,11.48
2023-03-23T23:13:15.304Z,11.49
2023-03-23T23:15:47.166Z,11.49
2023-03-23T23:18:14.586Z,11.49
2023-03-23T23:20:42.230Z,11.45
2023-03-23T23:23:09.270Z,11.41
2023-03-23T23:25:36.592Z,11.39
2023-03-23T23:28:04.930Z,11.39
2023-03-23T23:30:32.170Z,11.37
2023-03-23T23:32:59.026Z,11.34
2023-03-23T23:35:26.216Z,11.42
2023-03-23T23:37:53.500Z,11.39
2023-03-23T23:40:20.467Z,11.33
2023-03-23T23:42:50.168Z,11.37
2023-03-23T23:45:18.211Z,11.48
2023-03-23T23:47:45.828Z,11.53
2023-03-23T23:50:13.928Z,11.56
2023-03-23T23:52:42.639Z,11.55
2023-03-23T23:55:10.470Z,11.59
2023-03-23T23:57:37.646Z,11.56
